• Join FlightAware (Why Join?)
  • Login
  • US Flag 
02:09AM EDT


 

Airport Tracker/Info


-or-


 

Live Flight TrackerFlight Track Log ✈ SWA1046 ✈ 30-Jun-2013 ✈ KMDW - KRNO

Flight Track Log - Related Links

Times and Time Zones

All times are in EDT time to prevent confusion due to time zone crossing. See the SWA1046 flight status page for this flight to view local times or setup timezone preferences in your user account.

Time Position Orientation Groundspeed Altitude Reporting Facility
EDT Latitude Longitude Course Direction KTS MPH feet Rate Location/Type
03:23PM 41.7500 -87.8667 225° Southwest 243 280 3,800  Level Chicago TRACON
03:24PM 41.7061 -87.9158 220° Southwest 245 282 5,400 1,680 Climbing Chicago Center
03:25PM 41.7197 -88.0103 281° West 282 325 7,100 2,100 Climbing Chicago Center
03:26PM 41.7636 -88.0997 303° West 290 334 9,800 2,460 Climbing Chicago Center
03:27PM 41.7656 -88.2089 271° West 302 348 12,300 2,820 Climbing Chicago Center
03:28PM 41.7567 -88.3544 265° West 327 376 15,700 2,400 Climbing Chicago Center
03:29PM 41.7978 -88.4767 294° West 377 434 17,400 1,980 Climbing Chicago Center
03:30PM 41.8608 -88.5947 306° West 390 449 19,900 2,400 Climbing Chicago Center
03:31PM 41.9278 -88.7150 307° West 403 464 22,400 2,220 Climbing Chicago Center
03:32PM 41.9969 -88.8400 307° West 417 480 24,500 2,040 Climbing Chicago Center
03:33PM 42.0817 -88.9892 307° West 430 495 26,700 1,860 Climbing Chicago Center
03:34PM 42.1489 -89.1275 303° West 443 510 28,400 1,560 Climbing Chicago Center
03:35PM 42.1606 -89.2986 275° West 461 531 30,000 1,680 Climbing Chicago Center
03:36PM 42.1689 -89.4678 274° West 455 524 31,900 1,800 Climbing Chicago Center
03:37PM 42.1806 -89.6653 275° West 454 522 33,800 1,560 Climbing Chicago Center
03:38PM 42.1911 -89.8311 275° West 447 514 35,200 1,020 Climbing Chicago Center
03:39PM 42.2086 -89.9839 279° West 447 514 36,000 360 Climbing Chicago Center
03:40PM 42.2278 -90.1478 279° West 445 512 36,000  Level Chicago Center
03:41PM 42.2494 -90.3439 279° West 445 512 36,000  Level Chicago Center
03:42PM 42.2675 -90.5081 279° West 445 512 36,000  Level Chicago Center
03:43PM 42.2850 -90.6714 278° West 444 511 36,000  Level Chicago Center
03:44PM 42.3019 -90.8364 278° West 446 513 36,000  Level Chicago Center
03:45PM 42.3192 -91.0003 278° West 444 511 36,000  Level Chicago Center
03:48PM 42.3556 -91.3625 278° West 443 510 36,000  Level Chicago Center
03:49PM 42.3722 -91.5283 278° West 446 513 36,000 300 Level Chicago Center
03:50PM 42.3886 -91.6956 278° West 446 513 36,700 480 Climbing Chicago Center
03:51PM 42.4047 -91.8633 277° West 450 518 37,000 360 Climbing Chicago Center
03:52PM 42.4194 -92.0297 277° West 448 516 37,500 480 Climbing Chicago Center
03:53PM 42.4361 -92.1933 278° West 443 510 38,000 240 Climbing Chicago Center
03:54PM 42.4539 -92.3925 277° West 445 512 38,000  Level Chicago Center
03:55PM 42.4611 -92.5589 273° West 447 514 38,000  Level Chicago Center
03:56PM 42.4653 -92.7236 272° West 443 510 38,000  Level Chicago Center
03:57PM 42.4686 -92.8911 272° West 447 514 38,000  Level Chicago Center
03:59PM 42.4772 -93.2875 272° West 444 511 38,000  Level Minneapolis Center
04:00PM 42.4806 -93.4533 272° West 445 512 38,000  Level Minneapolis Center
04:01PM 42.4833 -93.6189 271° West 444 511 38,000  Level Minneapolis Center
04:02PM 42.4858 -93.8161 271° West 442 509 38,000  Level Minneapolis Center
04:03PM 42.4883 -93.9800 271° West 440 506 38,000  Level Minneapolis Center
04:04PM 42.4919 -94.1422 272° West 436 502 38,000  Level Minneapolis Center
04:05PM 42.4928 -94.3056 270° West 438 504 38,000  Level Minneapolis Center
04:06PM 42.4939 -94.4683 271° West 437 503 38,000  Level Minneapolis Center
04:07PM 42.4950 -94.6372 271° West 434 499 38,000  Level Minneapolis Center
04:08PM 42.4978 -94.8325 271° West 434 499 38,000  Level Minneapolis Center
04:10PM 42.4986 -94.9958 270° West 435 501 38,000  Level Minneapolis Center
04:11PM 42.4975 -95.1532 269° West  Level FlightAware Approximate
04:12PM 42.4986 -95.3228 269° West 437 503 38,000  Level Minneapolis Center
04:13PM 42.4986 -95.4883 270° West 440 506 38,000  Level Minneapolis Center
04:14PM 42.4992 -95.6847 270° West 437 503 38,000  Level Minneapolis Center
04:15PM 42.4986 -95.8478 270° West 436 502 38,000  Level Minneapolis Center
04:16PM 42.4972 -96.0108 269° West 436 502 38,000  Level Minneapolis Center
04:17PM 42.4972 -96.1739 270° West 435 501 38,000  Level Minneapolis Center
04:18PM 42.4956 -96.3356 269° West 431 496 38,000  Level Minneapolis Center
04:19PM 42.4939 -96.4947 269° West 427 491 38,000  Level Minneapolis Center
04:20PM 42.4917 -96.6889 269° West 429 494 38,000  Level Minneapolis Center
04:22PM 42.4886 -97.0108 269° West 429 494 38,000  Level Minneapolis Center
04:23PM 42.4861 -97.1714 269° West 428 493 38,000  Level Minneapolis Center
04:24PM 42.4831 -97.3322 269° West 429 494 38,000  Level Minneapolis Center
04:25PM 42.4808 -97.4908 269° West 424 488 38,000  Level Minneapolis Center
04:26PM 42.4775 -97.6808 269° West 422 486 38,000  Level Minneapolis Center
04:27PM 42.4742 -97.8367 268° West 418 481 38,000  Level Minneapolis Center
04:28PM 42.4708 -97.9833 268° West 422 486 38,000  Level Minneapolis Center
04:29PM 42.4669 -98.1700 268° West 414 476 38,000  Level Minneapolis Center
04:30PM 42.4631 -98.3281 268° West 420 483 38,000  Level Minneapolis Center
04:31PM 42.4592 -98.4825 268° West 414 476 38,000  Level Minneapolis Center
04:32PM 42.4556 -98.6381 268° West 414 476 38,000  Level Minneapolis Center
04:33PM 42.4508 -98.7925 268° West 412 474 38,000  Level Minneapolis Center
04:34PM 42.4456 -98.9456 267° West 410 472 38,000  Level Minneapolis Center
04:35PM 42.4400 -99.1289 268° West 408 470 38,000  Level Minneapolis Center
04:36PM 42.4361 -99.2825 268° West 409 471 38,000  Level Minneapolis Center
04:37PM 42.4306 -99.4358 267° West 410 472 38,000  Level Minneapolis Center
04:38PM 42.4253 -99.5906 267° West 410 472 38,000  Level Minneapolis Center
04:40PM 42.4192 -99.7442 267° West 412 474 38,000  Level Minneapolis Center
04:41PM 42.4119 -99.9319 267° West 415 478 38,000  Level Minneapolis Center
04:42PM 42.4050 -100.0989 267° West 416 479 38,000  Level Denver Center
04:43PM 42.3983 -100.2703 267° West 411 473 38,000  Level Denver Center
04:44PM 42.3917 -100.4178 267° West 411 473 38,000  Level Denver Center
04:45PM 42.3844 -100.5911 267° West 412 474 38,000  Level Denver Center
04:46PM 42.3772 -100.7392 266° West 412 474 38,000  Level Denver Center
04:47PM 42.3694 -100.9133 267° West 416 479 38,000  Level Denver Center
04:48PM 42.3628 -101.0600 267° West 411 473 38,000  Level Denver Center
04:49PM 42.3542 -101.2339 266° West 414 476 38,000  Level Denver Center
04:50PM 42.3456 -101.3817 266° West 414 476 38,000  Level Denver Center
04:51PM 42.3369 -101.5553 266° West 417 480 38,000  Level Denver Center
04:52PM 42.3297 -101.7042 266° West 416 479 38,000  Level Denver Center
04:53PM 42.3186 -101.9086 266° West 421 484 38,000  Level Denver Center
04:54PM 42.3097 -102.0594 265° West 421 484 38,000  Level Denver Center
04:55PM 42.2997 -102.2361 266° West 423 487 38,000  Level Denver Center
04:56PM 42.2900 -102.3869 265° West 421 484 38,000  Level Denver Center
04:57PM 42.2794 -102.5642 265° West 426 490 38,000  Level Denver Center
04:58PM 42.2700 -102.7158 265° West 423 487 38,000  Level Denver Center
05:00PM 42.2600 -102.8656 265° West 420 483 38,000  Level Denver Center
05:01PM 42.2483 -103.0408 265° West 420 483 38,000  Level Denver Center
05:02PM 42.2350 -103.2403 265° West 418 481 38,000  Level Denver Center
05:03PM 42.2244 -103.3883 265° West 415 478 38,000  Level Denver Center
05:04PM 42.2139 -103.5364 265° West 415 478 38,000  Level Denver Center
05:05PM 42.2022 -103.7106 265° West 419 482 38,000  Level Denver Center
05:06PM 42.1914 -103.8600 264° West 418 481 38,000  Level Denver Center
05:07PM 42.1778 -104.0364 264° West 421 484 38,000  Level Denver Center
05:08PM 42.1628 -104.2378 264° West 422 486 38,000  Level Denver Center
05:09PM 42.1503 -104.3894 264° West 422 486 38,000  Level Denver Center
05:10PM 42.1389 -104.5414 264° West 423 487 38,000  Level Denver Center
05:11PM 42.1256 -104.7175 264° West 421 484 38,000  Level Denver Center
05:12PM 42.1153 -104.8425 264° West 419 482 38,000  Level Denver Center
05:13PM 42.0989 -105.0419 264° West 417 480 38,000  Level Denver Center
05:14PM 42.0858 -105.1908 263° West 417 480 38,000  Level Denver Center
05:15PM 42.0725 -105.3425 263° West 424 488 38,000  Level Denver Center
05:16PM 42.0581 -105.5181 264° West 424 488 38,000  Level Denver Center
05:17PM 42.0450 -105.6717 264° West 429 494 38,000  Level Denver Center
05:19PM 42.0289 -105.8481 263° West 426 490 38,000  Level Denver Center
05:20PM 42.0136 -105.9994 262° West 427 491 38,000  Level Denver Center
05:21PM 41.9972 -106.1781 263° West 429 494 38,000  Level Denver Center
05:22PM 41.9839 -106.3317 263° West 431 496 38,000  Level Denver Center
05:23PM 41.9678 -106.5089 263° West 429 494 38,000  Level Denver Center
05:24PM 41.9517 -106.6586 262° West 428 493 38,000  Level Denver Center
05:25PM 41.9356 -106.8353 263° West 428 493 38,000  Level Denver Center
05:26PM 41.9194 -106.9858 262° West 427 491 38,000  Level Denver Center
05:28PM 41.8906 -107.2642 262° West 429 494 38,000  Level Salt Lake Center
05:29PM 41.8733 -107.4406 263° West 426 490 38,000  Level Salt Lake Center
05:30PM 41.8561 -107.5928 261° West 430 495 38,000  Level Salt Lake Center
05:31PM 41.8375 -107.7722 262° West 436 502 38,000  Level Salt Lake Center
05:32PM 41.8203 -107.9250 261° West 436 502 38,000  Level Salt Lake Center
05:33PM 41.8014 -108.1058 262° West 439 505 38,000  Level Salt Lake Center
05:34PM 41.7844 -108.2606 262° West 441 507 38,000  Level Salt Lake Center
05:35PM 41.7636 -108.4425 261° West 443 510 38,000  Level Salt Lake Center
05:36PM 41.7456 -108.5994 261° West 446 513 38,000  Level Salt Lake Center
05:37PM 41.7239 -108.7842 261° West 451 519 38,000  Level Salt Lake Center
05:38PM 41.7056 -108.9414 261° West 450 518 38,000  Level Salt Lake Center
05:39PM 41.6817 -109.1206 260° West 444 511 38,000  Level Salt Lake Center
05:40PM 41.6478 -109.2739 254° West 452 520 38,000  Level Salt Lake Center
05:41PM 41.6097 -109.4519 254° West 453 521 38,000  Level Salt Lake Center
05:42PM 41.5761 -109.6036 254° West 450 518 38,000  Level Salt Lake Center
05:43PM 41.5403 -109.7803 255° West 445 512 38,000  Level Salt Lake Center
05:44PM 41.5089 -109.9322 255° West 446 513 38,000  Level Salt Lake Center
05:45PM 41.4753 -110.1097 256° West 445 512 38,000  Level Salt Lake Center
05:46PM 41.4592 -110.2636 262° West 439 505 38,000  Level Salt Lake Center
05:47PM 41.4372 -110.4428 261° West 440 506 38,000  Level Salt Lake Center
05:48PM 41.4183 -110.5972 261° West 442 509 38,000  Level Salt Lake Center
05:49PM 41.3992 -110.7525 261° West 443 510 38,000  Level Salt Lake Center
05:50PM 41.3761 -110.9331 260° West 444 511 38,000  Level Salt Lake Center
05:51PM 41.3542 -111.0989 260° West 447 514 38,000  Level Salt Lake Center
05:52PM 41.3336 -111.2617 261° West 448 516 38,000  Level Salt Lake Center
05:53PM 41.3122 -111.4242 260° West 448 516 38,000  Level Salt Lake Center
05:54PM 41.2906 -111.5853 260° West 447 514 38,000  Level Salt Lake Center
05:55PM 41.2644 -111.7778 260° West 447 514 38,000  Level Salt Lake Center
05:56PM 41.2431 -111.9364 260° West 445 512 38,000  Level Salt Lake Center
05:57PM 41.2222 -112.0967 260° West 448 516 38,000  Level Salt Lake Center
05:58PM 41.1989 -112.2564 259° West 446 513 38,000  Level Salt Lake Center
06:00PM 41.1761 -112.4183 259° West 449 517 38,000  Level Salt Lake Center
06:01PM 41.1497 -112.6119 260° West 447 514 38,000  Level Salt Lake Center
06:02PM 41.1264 -112.7733 259° West 448 516 38,000  Level Salt Lake Center
06:03PM 41.1025 -112.9344 259° West 447 514 38,000  Level Salt Lake Center
06:04PM 41.0783 -113.0953 259° West 446 513 38,000  Level Salt Lake Center
06:05PM 41.0564 -113.2556 260° West 444 511 38,000  Level Salt Lake Center
06:06PM 41.0294 -113.4158 257° West 446 513 38,000  Level Salt Lake Center
06:07PM 41.0053 -113.5767 259° West 446 513 38,000  Level Salt Lake Center
06:08PM 40.9781 -113.7700 259° West 446 513 38,000  Level Salt Lake Center
06:09PM 40.9525 -113.9308 258° West 447 514 38,000  Level Salt Lake Center
06:10PM 40.9267 -114.0917 258° West 448 516 38,000  Level Salt Lake Center
06:11PM 40.9031 -114.2508 259° West 444 511 38,000  Level Salt Lake Center
06:12PM 40.8775 -114.4086 258° West 442 509 38,000  Level Salt Lake Center
06:13PM 40.8503 -114.5794 258° West 441 507 38,000  Level Salt Lake Center
06:14PM 40.8261 -114.7300 258° West 439 505 38,000  Level Salt Lake Center
06:15PM 40.7922 -114.9053 256° West 439 505 38,000  Level Salt Lake Center
06:16PM 40.7697 -115.0542 259° West 439 505 38,000  Level Salt Lake Center
06:17PM 40.7389 -115.2294 257° West 438 504 38,000  Level Salt Lake Center
06:18PM 40.7142 -115.3814 258° West 441 507 38,000  Level Salt Lake Center
06:19PM 40.6842 -115.5572 257° West 442 509 38,000  Level Salt Lake Center
06:20PM 40.6578 -115.7078 257° West 442 509 38,000  Level Salt Lake Center
06:21PM 40.6328 -115.8583 258° West 440 506 38,000  Level Salt Lake Center
06:22PM 40.6019 -116.0344 257° West 441 507 38,000  Level Salt Lake Center
06:23PM 40.5758 -116.1856 257° West 442 509 38,000  Level Salt Lake Center
06:24PM 40.5511 -116.3622 260° West 440 506 38,000  Level Salt Lake Center
06:25PM 40.5339 -116.5142 262° West 441 507 38,000  Level Salt Lake Center
06:26PM 40.5156 -116.6892 262° West 436 502 38,000  Level Salt Lake Center
06:27PM 40.4992 -116.8389 262° West 437 503 38,000  Level Salt Lake Center
06:28PM 40.4817 -117.0150 263° West 450 518 38,000  Level Salt Lake Center
06:29PM 40.4572 -117.1622 258° West 443 510 38,000  Level Salt Lake Center
06:30PM 40.4269 -117.3342 257° West 436 502 38,000  Level Salt Lake Center
06:31PM 40.4011 -117.4825 257° West 436 502 38,000  Level Salt Lake Center
06:32PM 40.3561 -117.6508 251° West 438 504 38,000  Level Salt Lake Center
06:33PM 40.3333 -117.7467 253° West 435 501 38,000  Level Oakland Center
06:34PM 40.2853 -117.9386 252° West 435 501 38,000 -300 Level Salt Lake Center
06:36PM 40.2208 -118.2011 252° West 439 505 37,200 -1,260 Descending Oakland Center
06:37PM 40.1742 -118.3867 252° West 448 516 34,500 -3,060 Descending Oakland Center
06:38PM 40.1350 -118.5389 251° West 447 514 31,000 -2,760 Descending Oakland Center
06:39PM 40.1028 -118.6947 255° West 450 518 28,900 -2,640 Descending Oakland Center
06:40PM 40.0739 -118.8478 256° West 440 506 25,700 -3,240 Descending Oakland Center
06:42PM 40.0167 -119.1333 255° West 426 490 19,700 -2,880 Descending Northern Cal TRACON
06:43PM 39.9833 -119.2833 254° West 399 459 17,600 -2,400 Descending Northern Cal TRACON
06:44PM 39.9750 -119.3394 259° West 392 451 16,100 -3,300 Descending Salt Lake Center
06:45PM 39.9364 -119.4647 248° West 379 436 12,600 -3,000 Descending Salt Lake Center
06:45PM 39.8775 -119.5378 224° Southwest 366 421 11,000 -1,500 Descending Oakland Center
06:46PM 39.8111 -119.6217 224° Southwest 343 395 10,000 -1,020 Descending Oakland Center